map of BBT home
BBT - Airport
Location
City:  Berberati, Haute-Sangha/Mambéré-Kadéď (Tö-Sangä/Mbaere-Kadeď), Central African Republic
ICAO:FEFT
IATA:BBT

Details
Type:Airport (Aerodrome, Airfield)
Latitude:4°13'18"N (4.221583)
Longitude:15°47'11"E (15.786369)
Datum:WGS 1984
Elevation:1929 ft (588 m)
Variation:0.52°E (WMM2015 magnetic declination)
0.12° annual change
Runways:1
Longest:5446 × 98 ft (1660 × 30 m), paved

Time
Time Zone:UTC+1
Local Time:

Weather
METAR:FEFT 141000Z 36004KT 9999 FEW020 30/23 Q1007

Related Locations
Nearby:
Farthest:MHX: 11957 mi / 19243 km
Manihiki Island (Manuhiki, Tapuahua, Humphrey Island), CK

Find:

   beyond  
but within

Other Information
Maps:
NOTAMs:
Links:
Sources:

  
  • flag of Central African Republic
  

Sectional Chart

Flight Planning
at skyvector.com

Satellite Image

Google Maps Satellite view

 

Copyright © 2004-2018 Karl L. Swartz. All rights reserved.
The Great Circle Mapper name and logo are trademarks of the Great Circle Mapper.
All other trademarks mentioned herein belong to their respective owners.
Please see credits for attibutions and further copyright information.

  Follow gcmap on Facebook Follow gcmap on Twitter Follow gcmap on Google+ GCmap on LinkedIn

hCard Microformat

Geo Microformat